Latest Weather Observations for Essendon Airport

IDV60901

Issued at 12:05 pm EST Sunday 21 September 2014 (issued every 10 minutes, with the page automatically refreshed every 10 minutes)

About weather observations | Map of Melbourne area stations | Latest observations for Melbourne area | Other Formats
Station Details ID: 086038 Name: ESSENDON AIRPORT Lat: -37.73 Lon: 144.91 Height: 78.4 m
Data from the previous 72 hours. | See also: Recent months at Essendon Airport
Date/Time
EST
Tmp

°C
App
Tmp
°C
Dew
Point
°C
Rel
Hum
%
Delta-T

°C
Wind Press
QNH
hPa
Press
MSL
hPa
Rain
since
9 am
mm
Dir
 
Spd
km/h
Gust
km/h
Spd
kts
Gust
kts
21/12:00pm 15.0 11.4 6.6 57 4.1 S 15 28 8 15 1031.3 1031.3 0.0
21/11:30am 14.8 10.2 6.4 57 4.1 S 20 28 11 15 1031.7 1031.8 0.0
21/11:00am 15.3 10.8 7.1 58 4.0 S 20 28 11 15 1031.7 1031.8 0.0
21/10:30am 14.2 9.7 6.1 58 3.9 S 19 26 10 14 1031.8 1031.9 0.0
21/10:00am 14.6 11.3 6.4 58 3.9 S 13 26 7 14 1031.8 1031.9 0.0
21/09:30am 13.8 10.4 5.9 59 3.8 SSW 13 20 7 11 1031.7 1031.8 0.0
21/09:00am 13.5 11.0 6.4 62 3.4 S 9 20 5 11 1031.5 1031.6 0.0
21/08:30am 12.6 12.0 7.3 70 2.6 CALM 0 6 0 3 1031.3 1031.3 0.0
21/08:00am 11.4 9.8 7.9 79 1.7 WSW 6 7 3 4 1031.4 1031.5 0.0
21/07:30am 10.6 9.0 8.9 89 0.8 W 7 7 4 4 1031.2 1031.2 0.0
21/07:00am 9.1 7.9 8.2 94 0.4 W 4 7 2 4 1030.9 1030.9 0.0
21/06:30am 8.4 6.6 7.3 93 0.5 W 6 7 3 4 1030.6 1030.6 0.0
21/06:00am 8.8 7.9 7.7 93 0.5 N 2 9 1 5 1030.3 1030.3 0.0
21/05:30am 9.2 7.6 8.1 93 0.5 W 6 7 3 4 1030.2 1030.2 0.0
21/05:00am 9.0 7.7 7.8 92 0.6 W 4 7 2 4 1030.0 1030.0 0.0
21/04:30am 9.2 8.7 8.0 92 0.6 CALM 0 6 0 3 1030.0 1030.0 0.0
21/04:00am 9.2 7.0 8.0 92 0.6 W 9 11 5 6 1029.7 1029.7 0.0
21/03:30am 9.3 6.8 8.1 92 0.6 W 11 13 6 7 1029.7 1029.7 0.0
21/03:00am 9.1 6.6 8.0 93 0.5 W 11 15 6 8 1029.9 1029.9 0.0
21/02:30am 8.9 7.1 7.8 93 0.5 W 7 11 4 6 1029.8 1029.8 0.0
21/02:00am 9.0 6.8 7.9 93 0.5 W 9 11 5 6 1029.9 1029.9 0.0
21/01:30am 9.0 7.7 7.8 92 0.6 WNW 4 9 2 5 1030.0 1030.0 0.0
21/01:00am 9.2 7.6 8.0 92 0.6 WNW 6 9 3 5 1030.1 1030.1 0.0
21/12:30am 9.1 8.6 7.7 91 0.7 CALM 0 0 0 0 1030.1 1030.1 0.0
21/12:00am 8.3 6.4 6.9 91 0.6 SSE 6 6 3 3 1030.1 1030.1 0.0
 
Date/Time
EST
Tmp

°C
App
Tmp
°C
Dew
Point
°C
Rel
Hum
%
Delta-T

°C
Wind Press
QNH
hPa
Press
MSL
hPa
Rain
since
9 am
mm
Dir
 
Spd
km/h
Gust
km/h
Spd
kts
Gust
kts
20/11:30pm 8.6 6.8 7.1 90 0.7 SSE 6 7 3 4 1030.0 1030.0 0.0
20/11:00pm 9.0 7.0 7.0 87 0.9 SSE 7 9 4 5 1030.0 1030.0 0.0
20/10:30pm 9.2 6.8 6.8 85 1.1 SSE 9 11 5 6 1030.1 1030.1 0.0
20/10:00pm 9.9 7.9 7.2 83 1.3 SSE 7 9 4 5 1030.0 1030.0 0.0
20/09:30pm 10.3 7.9 7.2 81 1.5 SSE 9 13 5 7 1030.1 1030.1 0.0
20/09:00pm 11.6 7.9 7.9 78 1.8 S 17 24 9 13 1030.2 1030.2 0.0
20/08:30pm 11.2 7.5 7.9 80 1.6 SSE 17 22 9 12 1030.2 1030.2 0.0
20/08:00pm 11.6 7.8 7.5 76 2.0 SSE 17 22 9 12 1030.0 1030.0 0.0
20/07:30pm 12.0 8.1 7.3 73 2.3 SSE 17 24 9 13 1029.7 1029.7 0.0
20/07:00pm 12.0 7.7 7.9 76 2.0 S 20 26 11 14 1029.4 1029.4 0.0
20/06:30pm 12.1 7.4 7.6 74 2.2 S 22 30 12 16 1029.1 1029.1 0.0
20/06:00pm 12.0 7.3 7.9 76 2.0 S 22 32 12 17 1028.9 1028.9 0.0
20/05:30pm 12.4 7.4 8.1 75 2.1 S 24 35 13 19 1028.6 1028.6 0.0
20/05:00pm 13.0 7.5 7.5 69 2.7 S 26 37 14 20 1028.1 1028.2 0.0
20/04:30pm 13.6 7.6 7.2 65 3.1 S 28 35 15 19 1027.8 1027.9 0.0
20/04:00pm 13.6 8.4 7.4 66 3.0 S 24 32 13 17 1027.5 1027.6 0.0
20/03:30pm 14.3 8.6 6.9 61 3.6 S 26 33 14 18 1027.3 1027.4 0.0
20/03:00pm 15.3 10.4 8.3 63 3.5 S 24 32 13 17 1027.0 1027.1 0.0
20/02:30pm 15.3 10.7 8.3 63 3.5 S 22 33 12 18 1027.0 1027.1 0.0
20/02:00pm 14.6 9.3 6.9 60 3.7 S 24 33 13 18 1027.0 1027.1 0.0
20/01:30pm 14.7 9.9 7.3 61 3.7 S 22 32 12 17 1027.0 1027.1 0.0
20/01:00pm 14.7 9.8 8.6 67 3.1 S 24 32 13 17 1027.1 1027.2 0.0
20/12:30pm 14.0 9.3 7.8 66 3.1 S 22 33 12 18 1027.4 1027.5 0.0
20/12:00pm 14.3 9.7 8.3 67 3.0 S 22 28 12 15 1027.5 1027.6 0.0
20/11:30am 13.7 9.5 8.1 69 2.8 S 20 26 11 14 1027.8 1027.9 0.0
20/11:00am 12.7 7.6 7.8 72 2.4 S 24 35 13 19 1027.9 1028.0 0.0
20/10:30am 12.3 8.0 8.0 75 2.1 SSW 20 28 11 15 1028.0 1028.1 0.0
20/10:00am 12.0 7.8 8.3 78 1.8 S 20 30 11 16 1028.2 1028.3 0.0
20/09:30am 11.0 6.6 8.8 86 1.1 SSW 22 32 12 17 1028.1 1028.2 0.0
20/09:29am 10.9 6.4 8.7 86 1.1 SSW 22 32 12 17 1028.1 1028.2 0.0
20/09:04am 12.2 9.2 9.4 83 1.4 SSW 15 20 8 11 1028.0 1028.1 0.0
20/09:00am 12.2 9.3 9.6 84 1.3 SSW 15 20 8 11 1028.0 1028.1 0.2
20/08:34am 10.8 8.3 9.6 92 0.6 SSW 13 17 7 9 1027.8 1027.9 0.2
20/08:30am 10.6 8.0 9.4 92 0.6 SSW 13 17 7 9 1027.8 1027.9 0.2
20/08:03am 10.5 8.0 8.3 86 1.1 SW 11 15 6 8 1027.5 1027.6 0.0
20/08:00am 10.7 8.3 8.5 86 1.1 SW 11 15 6 8 1027.5 1027.6 0.0
20/07:59am 10.7 8.3 8.5 86 1.1 SW 11 15 6 8 1027.4 1027.5 0.0
20/07:46am 10.0 7.9 8.1 88 0.9 SW 9 13 5 7 1027.3 1027.4 0.0
20/07:30am 9.6 7.3 7.4 86 1.0 SSW 9 11 5 6 1027.2 1027.3 0.0
20/07:00am 9.4 7.0 7.2 86 1.0 SW 9 11 5 6 1026.9 1027.0 0.0
20/06:30am 9.3 6.9 6.9 85 1.1 SSW 9 11 5 6 1026.6 1026.7 0.0
20/06:00am 8.8 6.4 6.9 88 0.9 WSW 9 11 5 6 1026.1 1026.2 0.0
20/05:30am 8.5 6.1 6.8 89 0.8 W 9 11 5 6 1025.7 1025.8 0.0
20/05:00am 7.0 3.8 5.3 89 0.8 W 11 13 6 7 1025.4 1025.5 0.0
20/04:30am 7.2 4.4 5.3 88 0.8 W 9 11 5 6 1025.1 1025.2 0.0
20/04:00am 7.5 4.8 5.5 87 0.9 W 9 11 5 6 1025.1 1025.2 0.0
20/03:30am 8.3 5.5 5.2 81 1.4 WSW 9 13 5 7 1025.0 1025.1 0.0
20/03:00am 9.8 6.8 6.0 77 1.7 SW 11 17 6 9 1025.0 1025.1 0.0
20/02:30am 9.3 6.4 6.7 84 1.2 SW 11 17 6 9 1025.3 1025.4 0.0
20/02:00am 8.5 5.9 6.0 84 1.1 W 9 11 5 6 1025.3 1025.4 0.0
20/01:30am 9.2 6.8 6.8 85 1.1 WSW 9 11 5 6 1025.5 1025.6 0.0
20/01:00am 9.3 6.4 6.7 84 1.2 WSW 11 15 6 8 1025.6 1025.7 0.0
20/12:30am 9.1 6.0 7.1 87 0.9 W 13 17 7 9 1025.5 1025.6 0.0
20/12:00am 7.8 4.6 5.3 84 1.1 W 11 13 6 7 1025.3 1025.4 0.0
 
Date/Time
EST
Tmp

°C
App
Tmp
°C
Dew
Point
°C
Rel
Hum
%
Delta-T

°C
Wind Press
QNH
hPa
Press
MSL
hPa
Rain
since
9 am
mm
Dir
 
Spd
km/h
Gust
km/h
Spd
kts
Gust
kts
19/11:30pm 10.9 7.3 6.8 76 1.9 SSW 15 20 8 11 1025.3 1025.4 0.0
19/11:00pm 10.9 7.8 7.2 78 1.8 SW 13 19 7 10 1025.6 1025.7 0.0
19/10:30pm 11.2 8.1 7.3 77 1.9 SSW 13 15 7 8 1025.7 1025.8 0.0
19/10:00pm 11.5 8.0 7.2 75 2.1 SSW 15 19 8 10 1025.8 1025.9 0.0
19/09:30pm 11.7 7.7 6.6 71 2.4 SSW 17 20 9 11 1025.8 1025.9 0.0
19/09:00pm 11.7 7.7 6.8 72 2.3 SSW 17 22 9 12 1025.7 1025.8 0.0
19/08:30pm 11.8 7.2 6.7 71 2.4 S 20 28 11 15 1025.5 1025.6 0.0
19/08:00pm 11.9 8.0 7.2 73 2.3 S 17 22 9 12 1025.3 1025.4 0.0
19/07:30pm 12.0 7.9 7.7 75 2.1 S 19 24 10 13 1025.1 1025.2 0.0
19/07:00pm 11.9 7.8 7.8 76 2.0 S 19 26 10 14 1024.8 1024.9 0.0
19/06:30pm 11.9 7.6 7.2 73 2.3 S 19 24 10 13 1024.6 1024.7 0.0
19/06:00pm 12.1 7.6 6.8 70 2.5 S 20 28 11 15 1024.5 1024.6 0.0
19/05:30pm 12.4 7.7 7.7 73 2.3 S 22 28 12 15 1024.3 1024.4 0.0
19/05:00pm 13.3 9.0 8.0 70 2.6 S 20 30 11 16 1023.9 1024.0 0.0
19/04:30pm 13.1 8.9 8.2 72 2.4 S 20 26 11 14 1023.9 1024.0 0.0
19/04:00pm 13.0 8.7 7.7 70 2.6 S 20 28 11 15 1023.7 1023.8 0.0
19/03:30pm 14.0 9.8 8.2 68 2.9 S 20 32 11 17 1023.5 1023.6 0.0
19/03:00pm 13.9 9.6 7.9 67 3.0 S 20 30 11 16 1023.6 1023.7 0.0
19/02:30pm 13.9 8.7 7.2 64 3.3 SSE 24 32 13 17 1023.5 1023.6 0.0
19/02:00pm 13.5 9.2 6.8 64 3.2 S 19 28 10 15 1023.7 1023.8 0.0
19/01:30pm 14.0 9.0 6.4 60 3.7 S 22 28 12 15 1023.7 1023.8 0.0
19/01:00pm 13.8 9.2 6.4 61 3.5 S 20 28 11 15 1024.0 1024.1 0.0
19/12:30pm 14.5 9.7 5.8 56 4.2 S 20 33 11 18 1024.3 1024.4 0.0
19/12:00pm 13.7 8.8 5.1 56 4.0 S 20 28 11 15 1024.5 1024.6 0.0
19/11:30am 13.8 9.7 6.2 60 3.6 SSW 17 26 9 14 1024.6 1024.7 0.0
19/11:00am 14.1 9.4 6.0 58 3.9 SW 20 24 11 13 1024.7 1024.8 0.0
19/10:30am 13.2 8.1 6.1 62 3.4 SW 22 30 12 16 1024.9 1025.0 0.0
19/10:00am 13.2 8.3 7.0 66 3.0 SW 22 32 12 17 1025.0 1025.1 0.0
19/09:30am 13.3 8.5 7.3 67 2.9 WSW 22 30 12 16 1024.9 1025.0 0.0
19/09:00am 12.3 8.0 7.8 74 2.2 WSW 20 30 11 16 1025.1 1025.2 1.0
19/08:30am 10.5 5.5 6.6 77 1.8 W 22 30 12 16 1025.1 1025.2 1.0
19/08:00am 10.2 6.2 6.5 78 1.7 W 17 24 9 13 1025.1 1025.2 1.0
19/07:30am 8.2 5.4 5.1 81 1.4 WNW 9 15 5 8 1025.0 1025.1 1.0
19/07:00am 7.9 4.7 5.2 83 1.2 NW 11 13 6 7 1024.7 1024.8 1.0
19/06:30am 7.2 4.3 4.9 85 1.0 NW 9 13 5 7 1024.5 1024.6 1.0
19/06:00am 6.9 4.4 4.6 85 1.0 W 7 9 4 5 1024.3 1024.4 1.0
19/05:30am 7.0 4.6 4.3 83 1.2 WSW 6 6 3 3 1024.1 1024.2 1.0
19/05:00am 6.9 3.9 4.2 83 1.2 WSW 9 13 5 7 1024.0 1024.1 1.0
19/04:30am 7.4 4.0 4.2 80 1.4 WSW 11 13 6 7 1023.8 1023.9 1.0
19/04:00am 7.7 3.9 4.1 78 1.6 W 13 15 7 8 1023.6 1023.7 1.0
19/03:30am 7.3 3.5 3.9 79 1.5 W 13 15 7 8 1023.6 1023.7 1.0
19/03:00am 6.9 3.5 3.9 81 1.3 WNW 11 13 6 7 1023.7 1023.8 1.0
19/02:30am 6.8 3.7 3.8 81 1.3 WNW 9 13 5 7 1023.9 1024.0 1.0
19/02:00am 6.5 3.1 3.8 83 1.1 WNW 11 11 6 6 1024.1 1024.2 1.0
19/01:30am 5.9 2.4 3.6 85 1.0 W 11 13 6 7 1024.3 1024.4 1.0
19/01:00am 5.8 3.2 3.3 84 1.0 WNW 6 7 3 4 1024.6 1024.7 1.0
19/12:30am 6.1 2.2 3.4 83 1.1 WNW 13 15 7 8 1024.6 1024.7 1.0
19/12:00am 6.4 2.5 3.2 80 1.3 W 13 15 7 8 1024.8 1024.9 1.0
 
Date/Time
EST
Tmp

°C
App
Tmp
°C
Dew
Point
°C
Rel
Hum
%
Delta-T

°C
Wind Press
QNH
hPa
Press
MSL
hPa
Rain
since
9 am
mm
Dir
 
Spd
km/h
Gust
km/h
Spd
kts
Gust
kts
18/11:30pm 7.8 4.4 4.0 77 1.6 W 11 17 6 9 1024.9 1025.0 1.0
18/11:00pm 8.5 4.4 4.5 76 1.8 W 15 20 8 11 1025.1 1025.2 1.0
18/10:30pm 8.9 4.9 4.9 76 1.8 W 15 19 8 10 1025.1 1025.2 1.0
18/10:00pm 8.8 5.4 5.7 81 1.4 W 13 15 7 8 1025.1 1025.2 1.0
18/09:30pm 8.2 4.9 4.8 79 1.5 WSW 11 13 6 7 1024.9 1025.0 1.0
18/09:00pm 9.5 6.3 4.9 73 2.1 SW 11 13 6 7 1024.8 1024.9 1.0
18/08:30pm 10.3 6.7 5.1 70 2.4 SSW 13 19 7 10 1024.6 1024.7 1.0
18/08:00pm 10.5 7.3 5.3 70 2.4 SSW 11 15 6 8 1024.6 1024.7 1.0
18/07:30pm 10.7 5.9 4.6 66 2.8 SSW 19 24 10 13 1024.5 1024.6 1.0
18/07:00pm 10.6 6.2 4.7 67 2.7 SSW 17 28 9 15 1024.1 1024.2 1.0
18/06:30pm 10.8 5.7 4.3 64 2.9 SSW 20 28 11 15 1024.0 1024.1 1.0
18/06:00pm 11.0 5.3 4.9 66 2.8 S 24 30 13 16 1023.8 1023.9 1.0
18/05:30pm 11.1 6.3 5.4 68 2.6 S 20 28 11 15 1023.3 1023.4 1.0
18/05:00pm 11.0 6.7 6.9 76 1.9 S 19 28 10 15 1023.1 1023.2 1.0
18/04:30pm 10.5 5.8 7.6 82 1.4 S 22 35 12 19 1023.0 1023.1 1.0
18/04:00pm 11.5 6.6 7.0 74 2.1 S 22 30 12 16 1022.7 1022.8 1.0
18/03:30pm 11.2 6.7 7.1 76 2.0 S 20 30 11 16 1022.6 1022.7 1.0
18/03:00pm 10.6 6.1 6.9 78 1.7 S 20 32 11 17 1022.7 1022.8 1.0
18/02:30pm 11.5 7.0 6.8 73 2.2 S 20 30 11 16 1022.7 1022.8 1.0
18/02:00pm 11.2 7.0 8.2 82 1.5 S 20 30 11 16 1022.7 1022.8 1.0
18/01:30pm 11.4 7.9 7.1 75 2.1 S 15 28 8 15 1022.6 1022.7 1.0
18/01:00pm 9.4 5.3 6.3 81 1.4 SSW 17 30 9 16 1022.8 1022.9 0.8
18/12:30pm 10.5 6.6 7.2 80 1.6 SSW 17 24 9 13 1022.9 1023.0 0.0

Latest Capital City Observations: Canberra | Sydney | Melbourne | Brisbane | Adelaide | Perth | Hobart | Darwin

Other Formats:

Comma delimited format used in spreadsheet applications
http://www.bom.gov.au/fwo/IDV60901/IDV60901.95866.axf

JavaScript Object Notation format (JSON) in row-major order
http://www.bom.gov.au/fwo/IDV60901/IDV60901.95866.json